This is the latest recevied weather packets stored in our database for station/object SR4DIG-13. If no packets are shown the sender has not sent any weather packets the latest 1 day(s).
| Time | Temp. | Humidity | Pressure | Rain* | Wind** | Luminosity | Snow |
|---|---|---|---|---|---|---|---|
| 1777987542 | 25° C | 44% | 1007.5 hPa | 0 mm | 0 m/s | - | - |
| 1777986891 | 25° C | 42% | 1007.5 hPa | 0 mm | 0 m/s | - | - |
| 1777986590 | 25.56° C | 39% | 1007.5 hPa | 0 mm | 0 m/s | - | - |
| 1777986289 | 25.56° C | 38% | 1007.6 hPa | 0 mm | 0 m/s | - | - |
| 1777985988 | 26.11° C | 39% | 1007.7 hPa | 0 mm | 0 m/s | - | - |
| 1777985687 | 26.11° C | 38% | 1007.8 hPa | 0 mm | 0 m/s | - | - |
| 1777985387 | 26.11° C | 38% | 1007.9 hPa | 0 mm | 0 m/s | - | - |
| 1777985086 | 26.11° C | 37% | 1007.9 hPa | 0 mm | 0 m/s | - | - |
| 1777984784 | 26.11° C | 36% | 1008.1 hPa | 0 mm | 0 m/s | - | - |
| 1777984484 | 26.11° C | 36% | 1008.1 hPa | 0 mm | 0 m/s | - | - |
| 1777984183 | 26.67° C | 36% | 1008 hPa | 0 mm | 0 m/s | - | - |
| 1777983882 | 28.33° C | 34% | 1008 hPa | 0 mm | 0 m/s | - | - |
| 1777983287 | 28.33° C | 34% | 1008.1 hPa | 0 mm | 0 m/s | - | - |
| 1777982986 | 28.89° C | 33% | 1008.1 hPa | 0 mm | 0 m/s | - | - |
| 1777982685 | 28.89° C | 34% | 1008.2 hPa | 0 mm | 0 m/s | - | - |
| 1777982384 | 27.22° C | 36% | 1008.3 hPa | 0 mm | 0 m/s | - | - |
| 1777982084 | 27.22° C | 36% | 1008.2 hPa | 0 mm | 0 m/s | - | - |
| 1777981783 | 26.67° C | 37% | 1008.3 hPa | 0 mm | 0 m/s | - | - |
| 1777981482 | 26.11° C | 37% | 1008.2 hPa | 0 mm | 0 m/s | - | - |
| 1777981107 | 25.56° C | 38% | 1008.3 hPa | 0 mm | 0 m/s | - | - |
| 1777980806 | 25.56° C | 38% | 1008.3 hPa | 0 mm | 0 m/s | - | - |
| 1777980505 | 25.56° C | 38% | 1008.3 hPa | 0 mm | 0 m/s | - | - |
| 1777980204 | 26.11° C | 37% | 1008.4 hPa | 0 mm | 0 m/s | - | - |
| 1777979593 | 26.11° C | 36% | 1008.6 hPa | 0 mm | 0 m/s | - | - |
| 1777979292 | 27.22° C | 35% | 1008.5 hPa | 0 mm | 0 m/s | - | - |
* Rain since midnight (hover to see other rain measurements)
** Current wind speed in m/s (hover to see current wind gust speed)